createdAt,value
2022-12-16T00:02:08.438Z,13.23
2022-12-16T00:04:35.566Z,11.80
2022-12-16T00:07:02.645Z,13.68
2022-12-16T00:09:29.736Z,13.02
2022-12-16T00:11:56.871Z,12.88
2022-12-16T00:14:23.926Z,19.95
2022-12-16T00:16:51.073Z,16.20
2022-12-16T00:19:18.859Z,12.40
2022-12-16T00:21:45.944Z,17.73
2022-12-16T00:24:13.028Z,12.43
2022-12-16T00:26:40.159Z,10.45
2022-12-16T00:29:07.383Z,11.65
2022-12-16T00:31:34.534Z,15.95
2022-12-16T00:34:01.700Z,12.85
2022-12-16T00:36:28.938Z,16.38
2022-12-16T00:38:56.021Z,16.20
2022-12-16T00:41:23.087Z,13.48
2022-12-16T00:43:50.204Z,17.45
2022-12-16T00:46:18.081Z,18.55
2022-12-16T00:48:45.349Z,19.30
2022-12-16T00:51:12.564Z,19.85
2022-12-16T00:53:39.650Z,12.57
2022-12-16T00:56:08.343Z,12.80
2022-12-16T00:58:35.645Z,15.65
2022-12-16T01:01:02.840Z,14.52
2022-12-16T01:03:30.150Z,15.30
2022-12-16T01:05:57.359Z,16.08
2022-12-16T01:08:24.601Z,18.80
2022-12-16T01:10:55.311Z,20.60
2022-12-16T01:13:24.285Z,16.42
2022-12-16T01:15:51.686Z,15.43
2022-12-16T01:18:19.686Z,15.52
2022-12-16T01:20:46.857Z,12.80
2022-12-16T01:23:13.939Z,14.07
2022-12-16T01:25:41.085Z,18.05
2022-12-16T01:28:08.308Z,18.63
2022-12-16T01:30:35.515Z,18.42
2022-12-16T01:33:02.694Z,17.20
2022-12-16T01:35:54.728Z,18.73
2022-12-16T01:38:16.950Z,31.98
2022-12-16T01:40:44.054Z,18.33
2022-12-16T01:43:13.028Z,20.33
2022-12-16T01:45:40.302Z,14.20
2022-12-16T01:48:13.696Z,14.38
2022-12-16T01:50:40.860Z,16.55
2022-12-16T01:53:08.008Z,14.85
2022-12-16T01:55:38.039Z,11.77
2022-12-16T01:58:10.223Z,17.20
2022-12-16T02:00:38.025Z,17.15
2022-12-16T02:03:05.940Z,18.33
2022-12-16T02:05:35.331Z,14.32
2022-12-16T02:10:35.599Z,14.32
2022-12-16T02:13:15.081Z,14.75
2022-12-16T02:16:05.018Z,12.57
2022-12-16T02:18:50.571Z,15.25
2022-12-16T02:21:36.282Z,16.58
2022-12-16T02:24:03.758Z,17.75
2022-12-16T02:26:36.862Z,10.60
2022-12-16T02:29:22.455Z,9.43
2022-12-16T02:31:53.713Z,15.55
2022-12-16T02:34:32.801Z,17.70
2022-12-16T02:37:09.129Z,17.20
2022-12-16T02:39:38.706Z,14.93
2022-12-16T02:42:22.182Z,16.83
2022-12-16T02:44:56.204Z,16.77
2022-12-16T02:47:23.287Z,15.32
2022-12-16T02:49:52.408Z,18.00
2022-12-16T02:52:21.056Z,17.92
2022-12-16T02:54:48.887Z,14.32
2022-12-16T02:57:15.948Z,18.85
2022-12-16T02:59:54.044Z,16.50
2022-12-16T03:02:42.717Z,11.38
2022-12-16T03:05:09.866Z,10.48
2022-12-16T03:07:38.997Z,12.52
2022-12-16T03:10:07.927Z,8.63
2022-12-16T03:12:35.688Z,8.82
2022-12-16T03:15:03.365Z,9.35
2022-12-16T03:17:30.463Z,6.72
2022-12-16T03:20:01.775Z,8.40
2022-12-16T03:22:29.730Z,7.28
2022-12-16T03:24:56.937Z,8.27
2022-12-16T03:27:32.554Z,8.35
2022-12-16T03:30:08.870Z,7.78
2022-12-16T03:32:46.347Z,12.10
2022-12-16T03:35:13.619Z,6.80
2022-12-16T03:37:41.846Z,11.13
2022-12-16T03:40:10.047Z,7.35
2022-12-16T03:42:37.611Z,7.65
2022-12-16T03:45:05.639Z,6.35
2022-12-16T03:47:32.821Z,11.25
2022-12-16T03:49:59.975Z,10.73
2022-12-16T03:52:27.068Z,5.85
2022-12-16T03:54:54.283Z,8.98
2022-12-16T03:57:21.428Z,10.43
2022-12-16T03:59:48.527Z,12.15
2022-12-16T04:02:15.735Z,5.53
2022-12-16T04:04:42.972Z,6.25
2022-12-16T04:07:22.045Z,6.90
2022-12-16T04:09:50.927Z,8.13
2022-12-16T04:12:37.173Z,9.70
2022-12-16T04:15:23.466Z,9.43
2022-12-16T04:18:09.486Z,8.80
2022-12-16T04:20:56.970Z,8.20
2022-12-16T04:23:57.664Z,9.15
2022-12-16T04:26:24.812Z,6.78
2022-12-16T04:28:51.906Z,8.07
2022-12-16T04:31:19.035Z,8.80
2022-12-16T04:34:04.759Z,7.82
2022-12-16T04:36:50.688Z,7.13
2022-12-16T04:39:36.646Z,8.02
2022-12-16T04:42:30.221Z,9.00
2022-12-16T04:45:16.252Z,5.30
2022-12-16T04:48:02.371Z,9.85
2022-12-16T04:50:48.123Z,9.32
2022-12-16T04:53:34.319Z,6.95
2022-12-16T04:56:20.168Z,7.05
2022-12-16T04:59:06.139Z,8.80
2022-12-16T05:01:52.126Z,5.55
2022-12-16T05:04:37.891Z,9.07
2022-12-16T05:07:23.828Z,10.02
2022-12-16T05:10:09.772Z,7.07
2022-12-16T05:12:55.452Z,10.20
2022-12-16T05:15:41.212Z,7.55
2022-12-16T05:18:27.804Z,8.30
2022-12-16T05:21:13.649Z,4.55
2022-12-16T05:23:59.342Z,12.25
2022-12-16T05:26:45.360Z,11.52
2022-12-16T05:29:31.424Z,12.75
2022-12-16T05:32:17.401Z,11.70
2022-12-16T05:35:03.337Z,13.07
2022-12-16T05:37:49.423Z,11.80
2022-12-16T05:40:35.175Z,12.48
2022-12-16T05:43:21.006Z,12.82
2022-12-16T05:46:06.920Z,12.90
2022-12-16T05:48:52.615Z,13.73
2022-12-16T05:51:38.516Z,11.40
2022-12-16T05:54:24.443Z,12.40
2022-12-16T05:57:10.296Z,13.18
2022-12-16T05:59:56.266Z,12.40
2022-12-16T06:02:42.295Z,12.98
2022-12-16T06:05:28.659Z,13.00
2022-12-16T06:08:14.247Z,12.88
2022-12-16T06:10:59.828Z,13.52
2022-12-16T06:13:47.213Z,12.57
2022-12-16T06:16:33.112Z,12.63
2022-12-16T06:19:18.896Z,12.63
2022-12-16T06:22:04.904Z,12.38
2022-12-16T06:24:50.816Z,10.70
2022-12-16T06:27:36.564Z,11.32
2022-12-16T06:30:22.397Z,11.77
2022-12-16T06:33:08.129Z,11.38
2022-12-16T06:35:54.236Z,11.70
2022-12-16T06:38:40.107Z,12.13
2022-12-16T06:41:26.226Z,11.68
2022-12-16T06:44:12.021Z,12.52
2022-12-16T06:46:57.911Z,12.48
2022-12-16T06:49:44.013Z,12.07
2022-12-16T06:52:29.984Z,21.10
2022-12-16T06:55:15.877Z,13.57
2022-12-16T06:58:05.354Z,12.77
2022-12-16T07:00:53.847Z,14.57
2022-12-16T07:03:41.975Z,13.52
2022-12-16T07:06:28.367Z,12.73
2022-12-16T07:09:14.425Z,12.50
2022-12-16T07:12:00.343Z,13.38
2022-12-16T07:14:46.278Z,12.05
2022-12-16T07:17:32.254Z,13.88
2022-12-16T07:20:18.214Z,12.45
2022-12-16T07:23:12.148Z,11.73
2022-12-16T07:26:01.789Z,10.02
2022-12-16T07:28:47.798Z,11.40
2022-12-16T07:31:33.986Z,11.48
2022-12-16T07:34:20.031Z,10.30
2022-12-16T07:37:06.833Z,10.90
2022-12-16T07:39:55.095Z,11.73
2022-12-16T07:42:41.207Z,12.20
2022-12-16T07:45:27.204Z,12.45
2022-12-16T07:48:13.141Z,11.20
2022-12-16T07:50:59.143Z,10.88
2022-12-16T07:53:45.166Z,11.43
2022-12-16T07:56:31.196Z,15.40
2022-12-16T07:59:17.322Z,12.13
2022-12-16T08:02:03.451Z,13.13
2022-12-16T08:04:49.238Z,15.80
2022-12-16T08:07:35.328Z,12.52
2022-12-16T08:10:21.304Z,12.68
2022-12-16T08:13:07.278Z,11.40
2022-12-16T08:15:54.455Z,10.18
2022-12-16T08:18:40.318Z,11.73
2022-12-16T08:21:26.054Z,11.95
2022-12-16T08:24:12.034Z,15.40
2022-12-16T08:26:57.888Z,11.13
2022-12-16T08:29:44.952Z,11.38
2022-12-16T08:32:32.435Z,13.07
2022-12-16T08:35:18.329Z,13.02
2022-12-16T08:38:09.028Z,12.27
2022-12-16T08:41:00.235Z,12.00
2022-12-16T08:43:46.547Z,12.02
2022-12-16T08:46:32.563Z,11.52
2022-12-16T08:49:18.509Z,11.27
2022-12-16T08:52:04.503Z,9.82
2022-12-16T08:54:50.336Z,10.63
2022-12-16T08:57:36.399Z,14.90
2022-12-16T09:00:23.583Z,15.25
2022-12-16T09:03:12.927Z,13.75
2022-12-16T09:05:58.780Z,13.88
2022-12-16T09:08:44.978Z,12.52
2022-12-16T09:11:30.861Z,11.00
2022-12-16T09:14:17.063Z,11.60
2022-12-16T09:17:03.024Z,11.25
2022-12-16T09:19:49.082Z,11.10
2022-12-16T09:22:35.195Z,11.23
2022-12-16T09:25:22.333Z,9.38
2022-12-16T09:28:08.822Z,8.90
2022-12-16T09:30:54.545Z,9.77
2022-12-16T09:33:41.455Z,8.80
2022-12-16T09:36:27.393Z,8.80
2022-12-16T09:39:13.374Z,7.85
2022-12-16T09:42:01.916Z,7.03
2022-12-16T09:44:47.820Z,9.20
2022-12-16T09:47:39.293Z,9.27
2022-12-16T09:50:33.132Z,9.25
2022-12-16T09:53:20.924Z,7.00
2022-12-16T09:56:07.835Z,6.07
2022-12-16T09:58:59.486Z,6.70
2022-12-16T10:01:46.221Z,5.25
2022-12-16T10:04:32.208Z,6.63
2022-12-16T10:07:19.313Z,6.50
2022-12-16T10:10:16.913Z,5.18
2022-12-16T10:13:21.348Z,4.70
2022-12-16T10:16:22.202Z,5.90
2022-12-16T10:19:13.961Z,4.97
2022-12-16T10:22:04.965Z,4.45
2022-12-16T10:25:03.019Z,3.75
2022-12-16T10:28:05.363Z,4.28
2022-12-16T10:30:56.042Z,6.68
2022-12-16T10:33:43.879Z,4.18
2022-12-16T10:36:34.022Z,4.07
2022-12-16T10:39:21.214Z,3.65
2022-12-16T10:42:09.488Z,3.80
2022-12-16T10:45:21.158Z,4.30
2022-12-16T10:48:07.069Z,3.55
2022-12-16T10:50:53.076Z,4.68
2022-12-16T10:53:43.882Z,4.40
2022-12-16T10:56:48.326Z,4.68
2022-12-16T10:59:34.384Z,3.38
2022-12-16T11:02:21.377Z,5.80
2022-12-16T11:05:08.110Z,3.45
2022-12-16T11:07:58.822Z,4.07
2022-12-16T11:10:44.755Z,10.85
2022-12-16T11:13:51.529Z,10.18
2022-12-16T11:16:42.005Z,4.25
2022-12-16T11:19:45.408Z,3.15
2022-12-16T11:22:33.892Z,3.83
2022-12-16T11:25:25.643Z,4.07
2022-12-16T11:28:21.307Z,4.43
2022-12-16T11:31:12.282Z,4.15
2022-12-16T11:33:58.573Z,4.57
2022-12-16T11:36:45.504Z,4.45
2022-12-16T11:39:35.721Z,4.30
2022-12-16T11:42:21.814Z,4.50
2022-12-16T11:45:13.518Z,4.55
2022-12-16T11:48:01.018Z,4.35
2022-12-16T11:50:47.584Z,5.22
2022-12-16T11:53:45.370Z,5.45
2022-12-16T11:56:42.410Z,5.03
2022-12-16T11:59:35.019Z,5.40
2022-12-16T12:02:22.914Z,4.85
2022-12-16T12:05:09.578Z,5.70
2022-12-16T12:08:07.337Z,4.35
2022-12-16T12:10:59.032Z,6.13
2022-12-16T12:13:54.086Z,5.75
2022-12-16T12:16:53.856Z,5.55
2022-12-16T12:19:50.031Z,6.20
2022-12-16T12:22:40.193Z,6.90
2022-12-16T12:25:38.875Z,5.45
2022-12-16T12:28:30.532Z,7.90
2022-12-16T12:31:30.496Z,11.48
2022-12-16T12:34:16.642Z,10.93
2022-12-16T12:37:14.410Z,7.15
2022-12-16T12:40:05.248Z,8.40
2022-12-16T12:43:09.418Z,8.20
2022-12-16T12:46:01.346Z,8.57
2022-12-16T12:48:57.935Z,9.65
2022-12-16T12:51:49.715Z,8.82
2022-12-16T12:54:35.611Z,8.48
2022-12-16T12:57:22.356Z,8.60
2022-12-16T13:00:17.438Z,11.25
2022-12-16T13:03:08.154Z,9.95
2022-12-16T13:05:57.884Z,10.85
2022-12-16T13:08:50.622Z,9.48
2022-12-16T13:11:36.470Z,10.57
2022-12-16T13:14:42.406Z,10.68
2022-12-16T13:20:15.702Z,9.70
2022-12-16T13:26:14.848Z,9.48
2022-12-16T13:29:03.838Z,9.55
2022-12-16T13:31:49.922Z,9.20
2022-12-16T13:34:35.996Z,9.45
2022-12-16T13:37:30.988Z,10.57
2022-12-16T13:40:25.549Z,7.45
2022-12-16T13:43:18.213Z,9.50
2022-12-16T13:46:24.759Z,9.65
2022-12-16T13:49:10.630Z,9.32
2022-12-16T13:51:56.339Z,10.15
2022-12-16T13:54:50.755Z,10.23
2022-12-16T13:57:38.673Z,10.75
2022-12-16T14:00:25.992Z,10.93
2022-12-16T14:03:13.203Z,8.73
2022-12-16T14:06:02.759Z,9.93
2022-12-16T14:08:51.832Z,10.35
2022-12-16T14:11:52.932Z,10.07
2022-12-16T14:14:38.524Z,11.57
2022-12-16T14:17:25.768Z,10.55
2022-12-16T14:20:30.432Z,12.30
2022-12-16T14:23:54.762Z,10.98
2022-12-16T14:26:31.507Z,12.05
2022-12-16T14:29:17.709Z,10.73
2022-12-16T14:32:09.878Z,10.95
2022-12-16T14:34:56.613Z,13.10
2022-12-16T14:37:56.264Z,20.40
2022-12-16T14:40:43.581Z,15.55
2022-12-16T14:43:35.158Z,16.45
2022-12-16T14:46:21.289Z,19.58
2022-12-16T14:49:08.086Z,27.95
2022-12-16T14:51:55.604Z,11.93
2022-12-16T14:54:45.333Z,13.10
2022-12-16T14:57:32.975Z,14.02
2022-12-16T15:00:19.478Z,13.85
2022-12-16T15:03:11.429Z,13.95
2022-12-16T15:05:58.456Z,12.50
2022-12-16T15:08:44.843Z,13.55
2022-12-16T15:11:32.268Z,14.70
2022-12-16T15:35:11.299Z,12.73
2022-12-16T15:38:03.888Z,13.52
2022-12-16T15:43:57.775Z,14.63
2022-12-16T15:46:46.076Z,14.85
2022-12-16T15:49:37.768Z,12.82
2022-12-16T15:52:41.317Z,21.92
2022-12-16T15:55:44.552Z,14.13
2022-12-16T15:58:35.366Z,12.57
2022-12-16T16:01:21.072Z,20.15
2022-12-16T16:04:08.601Z,13.27
2022-12-16T16:06:54.924Z,14.05
2022-12-16T16:09:42.727Z,14.02
2022-12-16T16:12:32.098Z,13.55
2022-12-16T16:15:18.290Z,14.60
2022-12-16T16:18:04.146Z,14.77
2022-12-16T16:20:50.203Z,14.30
2022-12-16T16:23:36.475Z,14.80
2022-12-16T16:26:22.498Z,15.00
2022-12-16T16:29:09.497Z,14.77
2022-12-16T16:31:59.386Z,15.05
2022-12-16T16:34:49.458Z,14.95
2022-12-16T16:37:36.426Z,17.40
2022-12-16T16:40:34.733Z,23.05
2022-12-16T16:43:20.974Z,22.98
2022-12-16T16:46:11.440Z,27.92
2022-12-16T16:48:57.419Z,25.00
2022-12-16T16:51:43.453Z,24.08
2022-12-16T16:54:29.479Z,23.77
2022-12-16T16:57:15.343Z,25.85
2022-12-16T17:00:01.284Z,23.13
2022-12-16T17:02:47.175Z,20.65
2022-12-16T17:05:33.446Z,25.77
2022-12-16T17:08:19.375Z,22.10
2022-12-16T17:11:06.153Z,23.52
2022-12-16T17:13:52.283Z,23.40
2022-12-16T17:16:38.393Z,22.55
2022-12-16T17:19:24.330Z,21.42
2022-12-16T17:22:10.548Z,20.33
2022-12-16T17:24:56.439Z,21.77
2022-12-16T17:27:43.623Z,24.95
2022-12-16T17:30:34.859Z,24.45
2022-12-16T17:33:20.885Z,27.60
2022-12-16T17:36:10.635Z,29.48
2022-12-16T17:39:01.572Z,24.95
2022-12-16T17:41:48.469Z,20.23
2022-12-16T17:44:34.466Z,19.90
2022-12-16T17:47:20.509Z,18.33
2022-12-16T17:50:06.491Z,20.52
2022-12-16T17:52:52.518Z,22.02
2022-12-16T17:55:38.657Z,19.23
2022-12-16T17:58:24.844Z,21.33
2022-12-16T18:01:10.890Z,23.38
2022-12-16T18:03:58.036Z,22.98
2022-12-16T18:06:44.685Z,22.77
2022-12-16T18:09:30.689Z,22.35
2022-12-16T18:12:16.747Z,21.42
2022-12-16T18:15:02.937Z,20.83
2022-12-16T18:17:48.454Z,20.63
2022-12-16T18:20:34.482Z,19.65
2022-12-16T18:23:20.477Z,23.25
2022-12-16T18:26:16.787Z,22.45
2022-12-16T18:29:02.573Z,25.58
2022-12-16T18:31:48.386Z,28.98
2022-12-16T18:34:34.435Z,29.40
2022-12-16T18:37:20.160Z,25.48
2022-12-16T18:40:06.326Z,27.45
2022-12-16T18:42:52.375Z,27.40
2022-12-16T18:45:38.399Z,26.33
2022-12-16T18:48:24.461Z,30.52
2022-12-16T18:51:14.414Z,31.38
2022-12-16T18:54:00.275Z,30.27
2022-12-16T18:56:53.937Z,29.45
2022-12-16T18:59:39.903Z,29.70
2022-12-16T19:02:43.149Z,27.67
2022-12-16T19:05:28.759Z,33.33
2022-12-16T19:08:14.784Z,29.27
2022-12-16T19:11:00.616Z,26.90
2022-12-16T19:13:46.420Z,27.65
2022-12-16T19:16:32.282Z,27.30
2022-12-16T19:19:20.279Z,23.33
2022-12-16T19:22:06.559Z,26.80
2022-12-16T19:24:54.945Z,20.27
2022-12-16T19:27:42.525Z,27.73
2022-12-16T19:30:28.580Z,28.80
2022-12-16T19:33:14.552Z,22.95
2022-12-16T19:36:00.284Z,23.85
2022-12-16T19:38:45.958Z,17.60
2022-12-16T19:41:35.340Z,18.20
2022-12-16T19:44:21.567Z,19.50
2022-12-16T19:47:07.281Z,18.08
2022-12-16T19:49:53.462Z,17.98
2022-12-16T19:52:40.953Z,18.25
2022-12-16T19:55:26.728Z,17.27
2022-12-16T19:58:12.764Z,19.67
2022-12-16T20:00:58.887Z,19.20
2022-12-16T20:03:45.235Z,20.33
2022-12-16T20:06:31.459Z,18.42
2022-12-16T20:09:17.438Z,17.83
2022-12-16T20:12:03.327Z,18.02
2022-12-16T20:14:49.597Z,17.60
2022-12-16T20:17:35.171Z,15.77
2022-12-16T20:20:20.781Z,15.48
2022-12-16T20:23:06.823Z,18.48
2022-12-16T20:28:58.346Z,18.60
2022-12-16T20:31:44.039Z,17.48
2022-12-16T20:34:29.919Z,19.38
2022-12-16T20:37:15.558Z,19.13
2022-12-16T20:40:01.491Z,18.55
2022-12-16T20:42:47.639Z,17.23
2022-12-16T20:45:33.941Z,19.77
2022-12-16T20:48:19.919Z,16.95
2022-12-16T20:51:19.742Z,18.30
2022-12-16T20:54:09.092Z,12.48
2022-12-16T20:56:56.116Z,17.75
2022-12-16T20:59:41.749Z,16.65
2022-12-16T21:02:33.603Z,16.88
2022-12-16T21:05:20.257Z,17.85
2022-12-16T21:08:06.276Z,17.80
2022-12-16T21:10:52.165Z,17.30
2022-12-16T21:13:38.461Z,15.70
2022-12-16T21:16:25.883Z,16.52
2022-12-16T21:19:11.765Z,15.32
2022-12-16T21:21:57.694Z,15.98
2022-12-16T21:24:43.559Z,16.10
2022-12-16T21:27:29.642Z,14.40
2022-12-16T21:30:15.594Z,16.70
2022-12-16T21:33:01.804Z,15.50
2022-12-16T21:35:47.898Z,18.33
2022-12-16T21:38:33.761Z,17.25
2022-12-16T21:41:19.636Z,17.42
2022-12-16T21:44:05.438Z,16.65
2022-12-16T21:46:51.892Z,15.77
2022-12-16T21:49:37.799Z,17.08
2022-12-16T21:52:23.748Z,15.60
2022-12-16T21:55:09.893Z,17.88
2022-12-16T21:57:56.630Z,14.65
2022-12-16T22:00:42.350Z,16.73
2022-12-16T22:03:28.102Z,13.45
2022-12-16T22:06:17.180Z,12.20
2022-12-16T22:09:03.292Z,18.02
2022-12-16T22:11:49.285Z,17.30
2022-12-16T22:14:35.369Z,17.98
2022-12-16T22:17:21.430Z,12.65
2022-12-16T22:20:07.181Z,18.20
2022-12-16T22:22:53.031Z,17.05
2022-12-16T22:25:39.488Z,12.80
2022-12-16T22:28:26.451Z,14.30
2022-12-16T22:34:19.587Z,15.25
2022-12-16T22:36:22.086Z,16.95
2022-12-16T22:37:05.650Z,14.68
2022-12-16T22:39:51.314Z,14.77
2022-12-16T22:42:37.816Z,17.45
2022-12-16T22:45:23.719Z,14.00
2022-12-16T22:48:09.791Z,16.80
2022-12-16T22:50:56.274Z,15.55
2022-12-16T22:53:42.538Z,12.32
2022-12-16T22:56:28.588Z,13.38
2022-12-16T22:59:14.284Z,14.25
2022-12-16T23:02:00.405Z,15.38
2022-12-16T23:04:46.108Z,14.40
2022-12-16T23:07:32.307Z,14.55
2022-12-16T23:10:18.499Z,15.65
2022-12-16T23:13:04.390Z,13.38
2022-12-16T23:15:50.574Z,14.52
2022-12-16T23:18:36.393Z,16.05
2022-12-16T23:21:22.339Z,13.50
2022-12-16T23:24:11.590Z,12.40
2022-12-16T23:26:57.654Z,13.70
2022-12-16T23:29:43.463Z,13.68
2022-12-16T23:32:29.286Z,14.93
2022-12-16T23:35:15.078Z,16.35
2022-12-16T23:38:00.938Z,13.93
2022-12-16T23:40:46.763Z,8.40
2022-12-16T23:43:32.388Z,14.68
2022-12-16T23:46:18.207Z,14.30
2022-12-16T23:49:03.925Z,16.98
2022-12-16T23:51:49.855Z,15.80
2022-12-16T23:54:35.950Z,12.63
2022-12-16T23:57:22.000Z,12.85
